Aculco, Mexico
Current Conditions -  °F | °C
As of 8:45 AM on Friday 31 Oct 2014 (Local Time) from MMQT Reporting Station
Scattered Clouds Scattered Clouds  
Wind Chill: 55°   Ceiling: Unl
Heat Index: 55°   Visibility: 5mi
Dew Point: 46°   Wind: 14mph
Humidity: 72%   Direction: 70°ENE
Pressure: 30.4"   Gusts: NA
Location:  20.12°N, 99.83°W
Report Text: MMQT 311445Z 07012KT 5SM SCT250 13/08 A3040 RMK 8/001 SC FRMG S HZY
Loading
Personal Weather Stations






























Interactive Weather Map
Tropical Storm Tracking
New forecast layout! Learn more

10-Day Weather Forecast

Advertisements
Track Severe Weather on mobile